METAR Data
IDs: Format: Raw Decoded Include TAF

Data at: 1341 UTC 14 Dec 2019

PAJZ 141256Z AUTO 07010KT 8SM OVC055 01/M01 A2946 RMK AO2 SLP984 T00061011 FZRANO $
PAJZ 141156Z AUTO 08010KT 8SM OVC050 01/M01 A2948 RMK AO2 SLP989 70006 T00061011 10006 21011 58003 FZRANO $
PAJZ 141056Z AUTO 09008KT 10SM OVC050 01/M01 A2949 RMK AO2 SLP993 T00061011 FZRANO $
PAJZ 140956Z AUTO 08007KT 10SM OVC110 00/M01 A2949 RMK AO2 SLP993 T00001006 FZRANO $
PAJZ 140856Z AUTO 03003KT 10SM OVC110 M01/M02 A2949 RMK AO2 SLP993 T10111017 53001 FZRANO $
PAJZ 140756Z AUTO 09006KT 10SM BKN110 00/M01 A2948 RMK AO2 SLP991 T00001011 400061061 FZRANO $
PAJZ 140656Z AUTO 04003KT 10SM SCT065 OVC110 00/M01 A2949 RMK AO2 SLP993 T00001006 FZRANO $
PAJZ 140556Z AUTO 07005KT 10SM OVC060 01/00 A2949 RMK AO2 SLP992 60006 T00060000 10006 21022 57005 FZRANO $
PAJZ 140456Z AUTO 03006KT 10SM FEW034 BKN060 OVC085 00/M01 A2949 RMK AO2 UPE56 SLP993 P0001 T00001006 FZRANO $
PAJZ 140356Z AUTO 03004KT 10SM UP FEW009 BKN036 OVC055 00/M01 A2950 RMK AO2 UPB06SNE06 SLP996 P0001 T00001006 FZRANO $
PAJZ 140315Z AUTO 00000KT 7SM UP OVC005 M01/M01 A2950 RMK AO2 UPB06SNE06 CIG 003V008 P0000 FZRANO $
PAJZ 140256Z AUTO 00000KT 4SM -SN BR OVC007 M01/M01 A2950 RMK AO2 UPB04E52SNE04B34E45B52 CIG 003V010 SLP997 P0003 60004 T10061011 53004 FZRANO $
PAJZ 140240Z AUTO 00000KT 6SM -SN BR BKN007 OVC017 M01/M01 A2950 RMK AO2 UPB04E34SNE04B34 P0002 FZRANO $
PAJZ 140156Z AUTO 00000KT 5SM -SN BR FEW006 BKN025 OVC031 M01/M02 A2949 RMK AO2 SLP994 P0001 T10111017 FZRANO $
PAJZ 140153Z AUTO 00000KT 5SM -SN BR FEW006 SCT009 OVC028 M01/M02 A2949 RMK AO2 P0001 FZRANO $
PAJZ 140140Z AUTO 34004KT 4SM -SN BR BKN006 OVC024 M02/M02 A2949 RMK AO2 CIG 004V011 P0001 FZRANO $
PAJZ 140056Z AUTO 32004KT 5SM -SN BR OVC004 M02/M03 A2949 RMK AO2 CIG 004V007 SLP992 P0000 T10171028 FZRANO $
PAJZ 140013Z AUTO 32004KT 4SM -SN BR OVC008 M02/M03 A2949 RMK AO2 CIG 008V012 P0000 FZRANO $
PAJZ 132356Z AUTO 30004KT 4SM -SN BR BKN010 OVC029 M02/M04 A2949 RMK AO2 UPB35E39SNB20E35B49 CIG 008V012 SLP992 P0000 60000 T10221039 11022 21056 51017 FZRANO $
PAJZ 132256Z AUTO 35004KT 7SM OVC037 M03/M05 A2948 RMK AO2 SLP988 T10281050 FZRANO $
PAJZ 132156Z AUTO 26004KT 8SM FEW039 OVC055 M04/M06 A2946 RMK AO2 SLP984 T10391056 FZRANO $
PAJZ 132056Z AUTO 00000KT 8SM BKN055 M04/M06 A2944 RMK AO2 SLP975 T10441061 53022 FZRANO $
PAJZ 131956Z AUTO 31005KT 8SM BKN047 M05/M06 A2941 RMK AO2 SLP966 T10501061 FZRANO $
PAJZ 131856Z AUTO 00000KT 9SM BKN049 M05/M07 A2939 RMK AO2 SLP960 T10501067 FZRANO $
PAJZ 131756Z AUTO 30004KT 9SM BKN050 BKN075 M05/M07 A2937 RMK AO2 SLP953 T10501067 11044 21056 53016 FZRANO $
PAJZ 131556Z AUTO 30004KT 9SM OVC060 M05/M07 A2933 RMK AO2 SLP937 T10501072 FZRANO $
PAJZ 131456Z AUTO 28003KT 9SM OVC065 M06/M07 A2932 RMK AO2 SLP936 T10561072 53009 FZRANO $
PAJZ 131356Z AUTO 33004KT 9SM BKN075 M06/M08 A2931 RMK AO2 SLP932 T10561078 FZRANO $
PAJZ 131256Z AUTO 31006KT 9SM OVC090 M06/M07 A2930 RMK AO2 SLP928 T10561072 FZRANO $
PAJZ 131156Z AUTO 29005KT 9SM FEW070 OVC090 M04/M07 A2930 RMK AO2 SLP928 7//// T10441072 11039 21061 53016 FZRANO $
PAJZ 131056Z AUTO 31005KT 9SM SCT065 OVC080 M04/M07 A2927 RMK AO2 SLPNO T10391067 FZRANO $
PAJZ 130956Z AUTO 00000KT 9SM OVC085 M05/M07 A2926 RMK AO2 SLPNO T10501067 FZRANO $
PAJZ 130856Z AUTO 04005KT 9SM CLR M04/M07 A2925 RMK AO2 SLPNO T10441072 53005 FZRANO $
PAJZ 130756Z AUTO 00000KT 9SM CLR M05/M07 A2924 RMK AO2 SLPNO T10501072 410111050 FZRANO $
PAJZ 130656Z AUTO 00000KT 9SM CLR M04/M07 A2923 RMK AO2 SLPNO T10441067 FZRANO $
PAJZ 130556Z AUTO 30007KT 9SM CLR M04/M07 A2923 RMK AO2 SLPNO T10391067 11011 21039 53003 FZRANO $
PAJZ 130456Z AUTO 30005KT 9SM FEW120 M03/M06 A2922 RMK AO2 SLPNO T10331061 FZRANO $
PAJZ 130356Z AUTO 28005KT 9SM FEW070 SCT090 M03/M06 A2923 RMK AO2 SLPNO T10281056 FZRANO $
PAJZ 130256Z AUTO 00000KT 9SM BKN100 M02/M05 A2922 RMK AO2 SLPNO T10221050 55001 FZRANO $
PAJZ 130156Z AUTO 25004KT 8SM BKN110 M02/M05 A2922 RMK AO2 SLPNO T10171050 FZRANO $